Time;durP1;ratioP1;P1;durP2;ratioP2;P2;SDS_P1;SDS_P2;PMS_P1;PMS_P2;Temp;Humidity;BMP_temperature;BMP_pressure;BME280_temperature;BME280_humidity;BME280_pressure;Samples;Min_cycle;Max_cycle;Signal;HPM_P1;HPM_P2
2023/02/26 00:00:30;;;;;;;3.88;2.72;;;2.00;99.90;;;;;;5047973;28;20040;-47
2023/02/26 00:02:55;;;;;;;4.72;2.50;;;1.90;99.90;;;;;;5050219;28;20021;-47
2023/02/26 00:05:21;;;;;;;3.40;2.20;;;1.90;99.90;;;;;;5048993;28;20122;-51
2023/02/26 00:07:46;;;;;;;2.25;2.15;;;1.90;99.90;;;;;;5047694;28;20048;-47
2023/02/26 00:10:15;;;;;;;3.72;2.42;;;1.80;99.90;;;;;;5046916;28;20041;-47
2023/02/26 00:12:41;;;;;;;6.30;2.60;;;1.80;99.90;;;;;;5031853;28;20529;-46
2023/02/26 00:15:11;;;;;;;4.05;2.70;;;1.90;99.90;;;;;;5030361;28;20064;-47
2023/02/26 00:17:44;;;;;;;4.78;3.05;;;1.80;99.90;;;;;;5029312;28;20560;-47
2023/02/26 00:20:10;;;;;;;3.33;2.30;;;1.80;99.90;;;;;;5029243;28;20025;-47
2023/02/26 00:22:37;;;;;;;2.92;2.13;;;1.80;99.90;;;;;;5029351;28;20029;-47
2023/02/26 00:25:03;;;;;;;2.58;2.28;;;1.70;99.90;;;;;;5038666;28;20113;-47
2023/02/26 00:27:29;;;;;;;4.63;2.67;;;1.70;99.90;;;;;;5008189;28;1036676;-50
2023/02/26 00:29:54;;;;;;;3.65;2.80;;;1.70;99.90;;;;;;5048435;28;20033;-50
2023/02/26 00:32:20;;;;;;;8.57;2.88;;;1.70;99.90;;;;;;5029766;28;20056;-50
2023/02/26 00:34:47;;;;;;;4.82;2.30;;;1.70;99.90;;;;;;5029919;28;20029;-46
2023/02/26 00:37:50;;;;;;;5.75;2.53;;;1.70;99.90;;;;;;5030261;28;20377;-48
2023/02/26 00:40:33;;;;;;;3.03;2.60;;;1.60;99.90;;;;;;5029985;28;20669;-47
2023/02/26 00:42:59;;;;;;;6.18;2.80;;;1.60;99.90;;;;;;5030042;28;20048;-48
2023/02/26 00:45:25;;;;;;;7.60;3.30;;;1.60;99.90;;;;;;5030007;28;20400;-50
2023/02/26 00:48:00;;;;;;;3.78;2.85;;;1.70;99.90;;;;;;5048942;28;20497;-50
2023/02/26 00:50:26;;;;;;;4.70;2.55;;;1.60;99.90;;;;;;5049338;28;20071;-47
2023/02/26 00:53:20;;;;;;;3.38;2.47;;;1.70;99.90;;;;;;5049331;28;20492;-47
2023/02/26 00:55:45;;;;;;;6.72;3.40;;;1.60;99.90;;;;;;5049446;28;20540;-47
2023/02/26 00:58:11;;;;;;;5.40;2.95;;;1.60;99.90;;;;;;5049420;28;20154;-49
2023/02/26 01:00:36;;;;;;;5.57;3.45;;;1.60;99.90;;;;;;5049459;28;20041;-50
2023/02/26 01:03:02;;;;;;;5.45;2.78;;;1.60;99.90;;;;;;5049275;28;20323;-46
2023/02/26 01:08:07;;;;;;;8.82;3.25;;;1.70;99.90;;;;;;4987587;28;19921;-41
2023/02/26 01:10:33;;;;;;;5.97;2.47;;;1.70;99.90;;;;;;4992579;28;20050;-42
2023/02/26 01:12:59;;;;;;;8.43;3.47;;;1.70;99.90;;;;;;4991751;28;20110;-44
2023/02/26 01:15:25;;;;;;;4.93;2.92;;;1.70;99.90;;;;;;4992842;28;20030;-42
2023/02/26 01:18:03;;;;;;;9.63;3.28;;;1.80;99.90;;;;;;4992604;28;20034;-43
2023/02/26 01:20:45;;;;;;;6.25;2.80;;;1.80;99.90;;;;;;4992478;28;20022;-43
2023/02/26 01:23:17;;;;;;;4.70;2.80;;;1.80;99.90;;;;;;4992977;28;20113;-41
2023/02/26 01:25:45;;;;;;;3.08;2.30;;;1.80;99.90;;;;;;4992537;28;20053;-41
2023/02/26 01:28:11;;;;;;;41.65;20.48;;;1.90;99.90;;;;;;4992848;28;20494;-43
2023/02/26 01:30:37;;;;;;;38.60;18.95;;;1.90;99.90;;;;;;4992869;28;20035;-42
2023/02/26 01:33:16;;;;;;;12.77;6.63;;;1.90;99.90;;;;;;4992588;28;20060;-42
2023/02/26 01:35:50;;;;;;;5.82;3.08;;;1.90;99.90;;;;;;4992384;28;20085;-42
2023/02/26 01:38:19;;;;;;;5.20;3.72;;;1.90;99.90;;;;;;4992759;28;20052;-44
2023/02/26 01:41:08;;;;;;;3.58;2.72;;;2.00;99.90;;;;;;4992688;28;20023;-41
2023/02/26 01:43:45;;;;;;;7.85;2.70;;;1.90;99.90;;;;;;4992953;28;20061;-43
2023/02/26 01:46:22;;;;;;;5.35;3.03;;;1.90;99.90;;;;;;4992364;28;20490;-43
2023/02/26 01:48:54;;;;;;;4.75;2.78;;;2.00;99.90;;;;;;4992493;28;20088;-41
2023/02/26 01:51:44;;;;;;;10.30;4.35;;;2.00;99.90;;;;;;4992243;28;20463;-40
2023/02/26 01:54:10;;;;;;;15.77;4.07;;;2.00;99.90;;;;;;4992417;28;20050;-42
2023/02/26 01:56:37;;;;;;;7.10;3.00;;;2.00;99.90;;;;;;4991975;28;20022;-40
2023/02/26 01:59:04;;;;;;;4.22;2.90;;;2.00;99.90;;;;;;4992214;28;20430;-42
2023/02/26 02:01:32;;;;;;;8.05;3.67;;;1.90;99.90;;;;;;4992272;28;20034;-42
2023/02/26 02:03:58;;;;;;;5.93;2.63;;;1.90;99.90;;;;;;4992635;28;20037;-42
2023/02/26 02:06:26;;;;;;;10.45;3.33;;;1.90;99.90;;;;;;4991324;28;20121;-44
2023/02/26 02:08:52;;;;;;;9.30;2.53;;;2.00;99.90;;;;;;4992078;28;20018;-43
2023/02/26 02:11:18;;;;;;;7.05;2.65;;;2.00;99.90;;;;;;4990900;28;20038;-49
2023/02/26 02:14:04;;;;;;;4.68;2.90;;;1.90;99.90;;;;;;4992059;28;20507;-41
2023/02/26 02:16:32;;;;;;;;;;;1.90;99.90;;;;;;4992248;28;20030;-42
2023/02/26 02:19:32;;;;;;;8.57;3.50;;;1.90;99.90;;;;;;4992088;28;19984;-39
2023/02/26 02:22:14;;;;;;;5.78;2.83;;;1.80;99.90;;;;;;4991987;28;20026;-42
2023/02/26 02:25:08;;;;;;;3.70;2.90;;;1.60;99.90;;;;;;4991377;28;20022;-42
2023/02/26 02:27:53;;;;;;;6.20;2.70;;;1.60;99.90;;;;;;4991241;28;20030;-42
2023/02/26 02:30:55;;;;;;;5.25;2.67;;;1.60;99.90;;;;;;4991970;28;20022;-43
2023/02/26 02:33:26;;;;;;;3.83;2.58;;;1.50;99.90;;;;;;4993576;28;20092;-41
2023/02/26 02:35:59;;;;;;;3.20;2.75;;;1.40;99.90;;;;;;4995951;28;20059;-42
2023/02/26 02:38:35;;;;;;;7.13;3.35;;;1.40;99.90;;;;;;4995954;28;20022;-42
2023/02/26 02:41:25;;;;;;;3.58;2.55;;;1.20;99.90;;;;;;4995788;28;20109;-43
2023/02/26 02:43:51;;;;;;;8.15;2.25;;;1.20;99.90;;;;;;4995964;28;20026;-43
2023/02/26 02:46:33;;;;;;;3.72;2.20;;;1.10;99.90;;;;;;4995196;28;20026;-42
2023/02/26 02:49:03;;;;;;;5.43;2.10;;;1.20;99.90;;;;;;4995657;28;20085;-44
2023/02/26 02:51:36;;;;;;;5.10;1.65;;;1.20;99.90;;;;;;4995755;28;20041;-45
2023/02/26 02:54:11;;;;;;;2.60;1.70;;;1.10;99.90;;;;;;4995493;28;20023;-40
2023/02/26 02:56:57;;;;;;;2.53;1.85;;;1.10;99.90;;;;;;4995444;28;20029;-43
2023/02/26 02:59:34;;;;;;;6.43;1.65;;;1.20;99.90;;;;;;4995507;28;20026;-43
2023/02/26 03:02:14;;;;;;;2.88;2.08;;;1.10;99.90;;;;;;4995554;28;20038;-42
2023/02/26 03:04:41;;;;;;;2.70;2.35;;;1.20;99.90;;;;;;4995400;28;20031;-42
2023/02/26 03:07:07;;;;;;;5.47;2.28;;;1.20;99.90;;;;;;4995079;28;20121;-42
2023/02/26 03:09:32;;;;;;;2.90;1.98;;;1.20;99.90;;;;;;4995320;28;20410;-44
2023/02/26 03:11:58;;;;;;;3.55;3.22;;;1.20;99.90;;;;;;4995066;28;20022;-43
2023/02/26 03:14:24;;;;;;;3.55;2.10;;;1.20;99.90;;;;;;4995131;28;20022;-44
2023/02/26 03:16:53;;;;;;;5.32;3.33;;;1.20;99.90;;;;;;4995446;28;20093;-44
2023/02/26 03:19:37;;;;;;;10.30;3.20;;;1.20;99.90;;;;;;4995544;28;20053;-40
2023/02/26 03:22:12;;;;;;;5.70;2.08;;;1.10;99.90;;;;;;4994836;28;20022;-43
2023/02/26 03:24:46;;;;;;;7.10;2.17;;;1.20;99.90;;;;;;4995001;28;20037;-44
2023/02/26 03:27:23;;;;;;;4.50;1.85;;;1.10;99.90;;;;;;4994687;28;20037;-43
2023/02/26 03:29:59;;;;;;;3.03;2.05;;;1.10;99.90;;;;;;4994861;28;20052;-43
2023/02/26 03:32:28;;;;;;;5.70;2.45;;;1.00;99.90;;;;;;4994705;28;20034;-42
2023/02/26 03:35:02;;;;;;;2.75;1.85;;;1.00;99.90;;;;;;4994647;28;20097;-40
2023/02/26 03:37:41;;;;;;;6.70;2.35;;;0.90;99.90;;;;;;4994963;28;20030;-44
2023/02/26 03:40:29;;;;;;;8.65;3.92;;;0.90;99.90;;;;;;4995143;28;20117;-47
2023/02/26 03:43:02;;;;;;;4.75;2.17;;;0.80;99.90;;;;;;4994733;28;20105;-42
2023/02/26 03:45:31;;;;;;;3.75;2.40;;;0.80;99.90;;;;;;4993303;28;20026;-43
2023/02/26 03:47:59;;;;;;;9.32;2.58;;;0.80;99.90;;;;;;4994428;28;20034;-44
2023/02/26 03:50:41;;;;;;;4.50;2.03;;;0.70;99.90;;;;;;4994374;28;20026;-43
2023/02/26 03:53:17;;;;;;;9.07;2.50;;;0.60;99.90;;;;;;4994399;28;20550;-44
2023/02/26 03:56:18;;;;;;;6.53;2.20;;;0.60;99.90;;;;;;4993021;28;20033;-43
2023/02/26 03:58:44;;;;;;;2.80;2.22;;;0.60;99.90;;;;;;4993218;28;20038;-43
2023/02/26 04:01:19;;;;;;;4.00;1.90;;;0.60;99.90;;;;;;4993110;28;20037;-43
2023/02/26 04:03:52;;;;;;;2.72;1.77;;;0.60;99.90;;;;;;4994173;28;20050;-42
2023/02/26 04:06:19;;;;;;;4.00;1.90;;;0.50;99.90;;;;;;4993706;28;20046;-45
2023/02/26 04:08:45;;;;;;;3.92;2.22;;;0.50;99.90;;;;;;4994132;28;20042;-43
2023/02/26 04:11:16;;;;;;;6.38;2.17;;;0.50;99.90;;;;;;4994145;28;20034;-43
2023/02/26 04:13:42;;;;;;;4.35;2.20;;;0.50;99.90;;;;;;4992792;28;20029;-43
2023/02/26 04:16:07;;;;;;;4.40;2.55;;;0.40;99.90;;;;;;4992493;28;20052;-43
2023/02/26 04:18:33;;;;;;;3.97;2.22;;;0.40;99.90;;;;;;4993920;28;20038;-42
2023/02/26 04:20:58;;;;;;;3.05;2.15;;;0.30;99.90;;;;;;4993727;28;20042;-42
2023/02/26 04:23:24;;;;;;;5.20;2.40;;;0.30;99.90;;;;;;4993133;28;20114;-42
2023/02/26 04:25:50;;;;;;;4.28;2.72;;;0.30;99.90;;;;;;4993857;28;20033;-42
2023/02/26 04:28:15;;;;;;;2.40;2.20;;;0.30;99.90;;;;;;4993675;28;20030;-42
2023/02/26 04:30:41;;;;;;;7.10;2.78;;;0.30;99.90;;;;;;4993789;28;20057;-43
2023/02/26 04:33:06;;;;;;;5.78;2.30;;;0.20;99.90;;;;;;4994075;28;20068;-42
2023/02/26 04:35:32;;;;;;;6.47;2.10;;;0.20;99.90;;;;;;4994546;28;20026;-42
2023/02/26 04:37:58;;;;;;;8.13;2.13;;;0.20;99.90;;;;;;4994330;28;20021;-44
2023/02/26 04:40:23;;;;;;;6.28;2.03;;;0.20;99.90;;;;;;4993933;28;20486;-45
2023/02/26 04:42:49;;;;;;;2.42;2.22;;;0.10;99.90;;;;;;4993457;28;20038;-42
2023/02/26 04:45:14;;;;;;;11.52;2.15;;;0.10;99.90;;;;;;4993415;28;20386;-42
2023/02/26 04:47:40;;;;;;;6.22;2.65;;;0.10;99.90;;;;;;4993247;28;20562;-43
2023/02/26 04:50:06;;;;;;;3.83;2.15;;;0.10;99.90;;;;;;4993618;28;20041;-45
2023/02/26 04:52:32;;;;;;;5.47;1.90;;;0.10;99.90;;;;;;4993497;28;20026;-43
2023/02/26 04:54:57;;;;;;;5.30;2.35;;;0.10;99.90;;;;;;4992897;28;20077;-45
2023/02/26 04:57:23;;;;;;;2.92;2.22;;;0.10;99.90;;;;;;4993428;28;20022;-44
2023/02/26 04:59:48;;;;;;;2.88;2.40;;;0.10;99.90;;;;;;4993504;28;20491;-43
2023/02/26 05:02:14;;;;;;;10.80;2.63;;;0.10;99.90;;;;;;4993196;28;20113;-44
2023/02/26 05:04:40;;;;;;;3.42;2.33;;;0.10;99.90;;;;;;4993007;28;20034;-45
2023/02/26 05:07:05;;;;;;;4.15;2.97;;;0.10;99.90;;;;;;4992998;28;20038;-42
2023/02/26 05:09:31;;;;;;;5.43;2.33;;;0.00;99.90;;;;;;4993074;28;20038;-42
2023/02/26 05:11:56;;;;;;;3.75;2.08;;;0.00;99.90;;;;;;4992593;28;20034;-43
2023/02/26 05:14:22;;;;;;;6.95;3.03;;;0.00;99.90;;;;;;4992818;28;20031;-42
2023/02/26 05:16:47;;;;;;;7.65;2.83;;;-0.10;99.90;;;;;;4991458;28;20022;-43
2023/02/26 05:19:13;;;;;;;5.68;2.67;;;-0.10;99.90;;;;;;4993320;28;20470;-42
2023/02/26 05:21:39;;;;;;;3.25;2.35;;;-0.10;99.90;;;;;;4992580;28;20030;-46
2023/02/26 05:24:05;;;;;;;4.53;2.50;;;-0.10;99.90;;;;;;4992955;28;20034;-40
2023/02/26 05:26:30;;;;;;;6.65;2.55;;;-0.10;99.90;;;;;;4992507;28;20045;-42
2023/02/26 05:28:56;;;;;;;7.25;2.80;;;-0.10;99.90;;;;;;4992825;28;20054;-45
2023/02/26 05:31:21;;;;;;;7.63;3.05;;;-0.20;99.90;;;;;;4992552;28;20490;-44
2023/02/26 05:33:47;;;;;;;6.18;3.60;;;-0.20;99.90;;;;;;4992590;28;20025;-47
2023/02/26 05:36:13;;;;;;;3.67;2.47;;;-0.20;99.90;;;;;;4992965;28;20030;-42
2023/02/26 05:38:38;;;;;;;10.60;2.97;;;-0.20;99.90;;;;;;4991147;28;20034;-42
2023/02/26 05:41:04;;;;;;;3.80;2.47;;;-0.20;99.90;;;;;;4992500;28;20096;-42
2023/02/26 05:43:29;;;;;;;3.30;2.92;;;-0.20;99.90;;;;;;4992459;28;20041;-48
2023/02/26 05:45:55;;;;;;;5.22;2.97;;;-0.20;99.90;;;;;;4992508;28;20027;-42
2023/02/26 05:48:21;;;;;;;4.32;2.90;;;-0.20;99.90;;;;;;4992283;28;20074;-47
2023/02/26 05:50:50;;;;;;;3.45;2.47;;;-0.20;99.90;;;;;;4992216;28;20053;-45
2023/02/26 05:53:16;;;;;;;12.43;3.25;;;-0.20;99.90;;;;;;4992459;28;20049;-44
2023/02/26 05:55:41;;;;;;;5.05;2.30;;;-0.20;99.90;;;;;;4992406;28;20022;-42
2023/02/26 05:58:07;;;;;;;3.83;2.65;;;-0.20;99.90;;;;;;4993091;28;20068;-44
2023/02/26 06:00:32;;;;;;;6.70;2.58;;;-0.30;99.90;;;;;;4992262;28;20041;-42
2023/02/26 06:02:58;;;;;;;3.35;2.47;;;-0.20;99.90;;;;;;4992164;28;20517;-42
2023/02/26 06:05:23;;;;;;;3.17;2.33;;;-0.30;99.90;;;;;;4992319;28;20037;-42
2023/02/26 06:07:49;;;;;;;2.53;2.20;;;-0.30;99.90;;;;;;4991109;28;20121;-40
2023/02/26 06:10:14;;;;;;;4.07;2.30;;;-0.30;99.90;;;;;;4992384;28;20125;-44
2023/02/26 06:12:40;;;;;;;6.10;2.13;;;-0.30;99.90;;;;;;4992266;28;20427;-42
2023/02/26 06:15:07;;;;;;;5.38;2.40;;;-0.20;99.90;;;;;;4992352;28;20106;-42
2023/02/26 06:17:33;;;;;;;4.47;2.13;;;-0.30;99.90;;;;;;4993347;28;20106;-43
2023/02/26 06:19:59;;;;;;;8.05;2.25;;;-0.30;99.90;;;;;;4990692;28;20026;-43
2023/02/26 06:22:25;;;;;;;2.95;2.33;;;-0.30;99.90;;;;;;4992179;28;20019;-42
2023/02/26 06:24:50;;;;;;;3.38;2.40;;;-0.30;99.90;;;;;;4992021;28;20060;-41
2023/02/26 06:27:16;;;;;;;5.40;2.20;;;-0.20;99.90;;;;;;4991706;28;20451;-41
2023/02/26 06:29:41;;;;;;;5.93;2.30;;;-0.20;99.90;;;;;;4992209;28;20026;-43
2023/02/26 06:32:07;;;;;;;5.50;2.42;;;-0.20;99.90;;;;;;4991921;28;20030;-42
2023/02/26 06:34:33;;;;;;;7.72;3.28;;;-0.10;99.90;;;;;;4991513;28;20102;-42
2023/02/26 06:36:58;;;;;;;3.58;2.08;;;-0.10;99.90;;;;;;4991711;28;20074;-42
2023/02/26 06:39:24;;;;;;;3.60;2.85;;;-0.10;99.90;;;;;;4991088;28;20118;-42
2023/02/26 06:41:49;;;;;;;8.73;2.28;;;0.00;99.90;;;;;;4991852;28;20498;-47
2023/02/26 06:44:15;;;;;;;5.80;2.92;;;-0.10;99.90;;;;;;4991741;28;20030;-42
2023/02/26 06:46:40;;;;;;;6.53;2.20;;;0.10;99.90;;;;;;4991689;28;20026;-45
2023/02/26 06:49:06;;;;;;;4.63;2.15;;;0.30;99.90;;;;;;4991829;28;20513;-43
2023/02/26 06:51:32;;;;;;;8.50;2.42;;;0.20;99.90;;;;;;4991886;28;20031;-44
2023/02/26 06:53:58;;;;;;;3.85;1.90;;;0.20;99.90;;;;;;4992173;28;20037;-42
2023/02/26 06:56:23;;;;;;;5.47;2.10;;;0.20;99.90;;;;;;4991479;28;20030;-42
2023/02/26 06:58:49;;;;;;;2.88;2.03;;;0.20;99.90;;;;;;4991769;28;20505;-42
2023/02/26 07:01:15;;;;;;;4.95;2.25;;;0.20;99.90;;;;;;4991935;28;20073;-40
2023/02/26 07:03:40;;;;;;;2.90;2.20;;;0.20;99.90;;;;;;4991634;28;20029;-41
2023/02/26 07:06:08;;;;;;;9.40;2.95;;;0.20;99.90;;;;;;5006655;23;20125;-61
2023/02/26 07:08:34;;;;;;;7.50;2.88;;;0.40;99.90;;;;;;5009392;28;20038;-55
2023/02/26 07:11:00;;;;;;;2.38;2.17;;;0.60;99.90;;;;;;5011539;28;20034;-53
2023/02/26 07:13:26;;;;;;;4.32;2.40;;;0.80;99.90;;;;;;5010426;28;20018;-54
2023/02/26 07:15:51;;;;;;;8.32;3.20;;;0.90;99.90;;;;;;5010118;28;20030;-56
2023/02/26 07:18:17;;;;;;;12.30;2.65;;;1.20;99.90;;;;;;5011407;28;20029;-54
2023/02/26 07:20:43;;;;;;;6.20;2.30;;;1.40;99.90;;;;;;5014523;28;20033;-51
2023/02/26 07:23:09;;;;;;;4.00;2.10;;;1.20;99.90;;;;;;5015055;28;20105;-60
2023/02/26 07:25:36;;;;;;;5.53;2.60;;;1.00;99.90;;;;;;5013483;28;20034;-58
2023/02/26 07:28:02;;;;;;;5.28;2.08;;;0.90;99.90;;;;;;5014464;28;20018;-56
2023/02/26 07:30:27;;;;;;;4.88;2.10;;;0.90;99.90;;;;;;5013668;28;20026;-59
2023/02/26 07:32:53;;;;;;;5.15;2.55;;;0.90;99.90;;;;;;5014700;28;20052;-51
2023/02/26 07:35:19;;;;;;;6.40;2.28;;;0.80;99.90;;;;;;5014541;28;20029;-56
2023/02/26 07:37:44;;;;;;;2.47;1.98;;;0.70;99.90;;;;;;5013164;28;20030;-57
2023/02/26 07:40:11;;;;;;;6.05;2.05;;;0.70;99.90;;;;;;5013103;28;20026;-59
2023/02/26 07:42:36;;;;;;;3.25;2.10;;;0.70;99.90;;;;;;5012976;28;20030;-58
2023/02/26 07:45:02;;;;;;;3.47;2.00;;;0.60;99.90;;;;;;5014513;28;20030;-60
2023/02/26 07:47:29;;;;;;;1.92;1.70;;;0.70;99.90;;;;;;5014117;28;20131;-54
2023/02/26 07:49:55;;;;;;;3.97;1.67;;;0.70;99.90;;;;;;5014302;28;20025;-55
2023/02/26 07:52:21;;;;;;;2.28;2.08;;;0.60;99.90;;;;;;5014115;28;20022;-63
2023/02/26 07:54:47;;;;;;;2.60;2.08;;;0.70;99.90;;;;;;5013000;28;20029;-63
2023/02/26 07:57:12;;;;;;;5.10;1.85;;;0.70;99.90;;;;;;5013432;28;20072;-62
2023/02/26 07:59:38;;;;;;;1.77;1.58;;;0.70;99.90;;;;;;5013862;28;20058;-56
2023/02/26 08:02:04;;;;;;;2.70;1.98;;;0.70;99.90;;;;;;5013171;28;20529;-52
2023/02/26 08:04:31;;;;;;;3.33;2.03;;;0.80;99.90;;;;;;5013330;28;20025;-53
2023/02/26 08:06:58;;;;;;;1.98;1.77;;;0.80;99.90;;;;;;5013882;28;20034;-60
2023/02/26 08:09:24;;;;;;;6.13;1.92;;;0.90;99.90;;;;;;5012448;28;20063;-55
2023/02/26 08:11:50;;;;;;;2.67;1.80;;;1.00;99.90;;;;;;5013165;28;20026;-53
2023/02/26 08:14:15;;;;;;;3.13;1.98;;;1.00;99.90;;;;;;5011094;28;20037;-56
2023/02/26 08:16:41;;;;;;;6.65;2.28;;;1.10;99.90;;;;;;5016204;28;20447;-56
2023/02/26 08:19:07;;;;;;;2.80;1.95;;;1.20;99.90;;;;;;5013613;28;20246;-54
2023/02/26 08:21:32;;;;;;;7.25;2.03;;;1.40;99.90;;;;;;5014296;28;20033;-54
2023/02/26 08:23:58;;;;;;;4.22;1.92;;;1.40;99.90;;;;;;5014279;28;20044;-53
2023/02/26 08:26:24;;;;;;;3.50;1.88;;;1.20;99.90;;;;;;5012884;28;20030;-59
2023/02/26 08:28:49;;;;;;;4.40;2.00;;;1.20;99.90;;;;;;5016015;28;20502;-56
2023/02/26 08:31:15;;;;;;;2.15;1.95;;;1.20;99.90;;;;;;5012337;28;20030;-50
2023/02/26 08:33:41;;;;;;;3.38;2.53;;;1.30;99.90;;;;;;5013089;28;20496;-53
2023/02/26 08:36:07;;;;;;;3.00;2.15;;;1.30;99.90;;;;;;5002787;28;20041;-56
2023/02/26 08:38:32;;;;;;;4.05;2.00;;;1.40;99.90;;;;;;5012767;28;20037;-53
2023/02/26 08:40:58;;;;;;;5.57;3.50;;;1.60;99.90;;;;;;5014084;28;20022;-58
2023/02/26 08:43:24;;;;;;;7.13;2.38;;;1.70;99.90;;;;;;5020698;28;20030;-52
2023/02/26 08:45:54;;;;;;;2.30;2.03;;;1.70;99.90;;;;;;5017937;28;20026;-52
2023/02/26 08:48:19;;;;;;;3.63;1.77;;;1.60;99.90;;;;;;5024406;28;20033;-60
2023/02/26 08:50:45;;;;;;;5.05;2.22;;;1.80;99.90;;;;;;5027901;28;20096;-56
2023/02/26 08:53:11;;;;;;;3.17;2.15;;;1.80;99.90;;;;;;5026558;28;20036;-59
2023/02/26 08:55:36;;;;;;;2.08;1.98;;;1.70;99.90;;;;;;5024212;28;20018;-58
2023/02/26 08:58:02;;;;;;;4.07;2.00;;;1.90;99.90;;;;;;5024030;28;20034;-58
2023/02/26 09:00:28;;;;;;;2.38;2.08;;;1.90;99.90;;;;;;5023166;28;20030;-56
2023/02/26 09:02:54;;;;;;;8.65;3.60;;;1.90;99.90;;;;;;5023775;28;20099;-55
2023/02/26 09:05:20;;;;;;;6.72;2.22;;;1.80;99.90;;;;;;5022595;28;20034;-60
2023/02/26 09:07:45;;;;;;;3.50;2.50;;;2.00;99.90;;;;;;5020424;28;20482;-58
2023/02/26 09:10:13;;;;;;;4.20;1.58;;;1.90;99.90;;;;;;5025044;28;20033;-61
2023/02/26 09:12:38;;;;;;;6.75;2.47;;;1.90;99.90;;;;;;5028197;28;20014;-57
2023/02/26 09:15:06;;;;;;;3.22;1.90;;;1.90;99.90;;;;;;5026670;28;20062;-58
2023/02/26 09:17:32;;;;;;;1.95;1.52;;;2.00;99.90;;;;;;5027276;28;20049;-58
2023/02/26 09:19:57;;;;;;;3.33;1.60;;;1.90;99.90;;;;;;5029255;28;20064;-56
2023/02/26 09:22:23;;;;;;;2.47;1.50;;;2.00;99.90;;;;;;5029380;28;20041;-57
2023/02/26 09:24:49;;;;;;;14.52;3.67;;;1.90;99.90;;;;;;5027227;28;20030;-55
2023/02/26 09:27:15;;;;;;;2.40;2.30;;;1.80;99.90;;;;;;5026248;28;20018;-54
2023/02/26 09:29:41;;;;;;;2.50;2.15;;;1.60;99.90;;;;;;5027849;28;20077;-56
2023/02/26 09:32:07;;;;;;;5.22;2.10;;;2.10;99.90;;;;;;5021981;28;20105;-56
2023/02/26 09:34:36;;;;;;;2.78;1.88;;;3.10;99.90;;;;;;5019047;28;20052;-52
2023/02/26 09:37:06;;;;;;;2.63;1.48;;;3.90;99.90;;;;;;5020947;28;20021;-54
2023/02/26 09:39:33;;;;;;;6.07;1.30;;;;;;;;;;5021260;28;20050;-57
2023/02/26 09:42:06;;;;;;;4.55;1.80;;;4.50;99.70;;;;;;5019180;28;20026;-55
2023/02/26 09:44:35;;;;;;;2.42;2.00;;;4.50;99.90;;;;;;5025078;28;20026;-57
2023/02/26 09:47:16;;;;;;;1.80;1.42;;;4.20;99.70;;;;;;5022851;28;20057;-58
2023/02/26 09:49:48;;;;;;;5.60;1.50;;;4.20;99.50;;;;;;5025570;28;20068;-57
2023/02/26 09:52:35;;;;;;;1.88;1.52;;;3.60;99.90;;;;;;5022234;28;20068;-53
2023/02/26 09:55:09;;;;;;;2.15;1.42;;;4.40;99.50;;;;;;5025466;28;20049;-56
2023/02/26 09:57:41;;;;;;;1.77;1.67;;;4.40;99.50;;;;;;5004587;28;20387;-57
2023/02/26 10:00:26;;;;;;;6.22;2.33;;;5.10;98.10;;;;;;4992558;28;20502;-52
2023/02/26 10:02:54;;;;;;;4.00;1.40;;;5.20;97.80;;;;;;5009719;28;20034;-53
2023/02/26 10:05:39;;;;;;;3.50;1.70;;;5.50;98.20;;;;;;5012198;28;20037;-57
2023/02/26 10:08:15;;;;;;;3.55;1.70;;;5.40;97.90;;;;;;5011679;28;20034;-55
2023/02/26 10:10:55;;;;;;;4.15;1.60;;;5.70;97.40;;;;;;5011940;28;20033;-52
2023/02/26 10:13:34;;;;;;;6.13;1.90;;;5.90;98.10;;;;;;5007969;28;20068;-53
2023/02/26 10:16:06;;;;;;;4.35;1.80;;;5.60;98.10;;;;;;4991770;28;20073;-58
2023/02/26 10:18:36;;;;;;;2.13;1.60;;;4.90;98.30;;;;;;5006418;28;20041;-55
2023/02/26 10:21:13;;;;;;;5.40;1.58;;;4.70;98.90;;;;;;5008878;28;20053;-55
2023/02/26 10:23:49;;;;;;;2.45;1.45;;;4.20;99.40;;;;;;5010377;28;20052;-49
2023/02/26 10:26:34;;;;;;;6.13;1.95;;;3.80;99.90;;;;;;5011457;28;20030;-53
2023/02/26 10:29:06;;;;;;;5.53;1.80;;;3.60;99.90;;;;;;5011629;28;20033;-51
2023/02/26 10:31:52;;;;;;;1.92;1.58;;;3.60;99.90;;;;;;5011810;28;20093;-53
2023/02/26 10:34:20;;;;;;;2.90;1.90;;;3.90;99.90;;;;;;5008228;28;20045;-55
2023/02/26 10:37:07;;;;;;;5.60;1.73;;;4.50;99.90;;;;;;5012558;28;20054;-58
2023/02/26 10:39:51;;;;;;;5.22;2.00;;;4.80;99.70;;;;;;5012683;28;20026;-57
2023/02/26 10:42:24;;;;;;;1.48;1.38;;;4.40;99.30;;;;;;5011558;28;20069;-53
2023/02/26 10:45:15;;;;;;;3.38;1.65;;;4.70;99.90;;;;;;5011984;28;20470;-54
2023/02/26 10:47:49;;;;;;;1.38;1.30;;;4.70;99.80;;;;;;5011394;28;20053;-59
2023/02/26 10:50:16;;;;;;;3.83;1.85;;;4.40;98.50;;;;;;5011563;28;20034;-52
2023/02/26 10:52:44;;;;;;;3.00;1.23;;;4.60;99.00;;;;;;5011317;28;20064;-54
2023/02/26 10:55:24;;;;;;;1.10;0.88;;;4.70;97.40;;;;;;5014601;28;20057;-50
2023/02/26 10:58:10;;;;;;;3.95;1.02;;;4.60;96.30;;;;;;5015280;28;20093;-57
2023/02/26 11:00:36;;;;;;;1.13;0.90;;;4.50;96.10;;;;;;5015584;28;20105;-54
2023/02/26 11:03:04;;;;;;;1.58;1.05;;;4.50;96.00;;;;;;5015042;28;20026;-52
2023/02/26 11:05:32;;;;;;;5.85;1.00;;;4.40;96.30;;;;;;5013997;28;20041;-54
2023/02/26 11:08:08;;;;;;;1.05;1.05;;;4.20;96.30;;;;;;5005831;28;20034;-54
2023/02/26 11:10:53;;;;;;;2.58;0.90;;;4.20;97.30;;;;;;5011499;28;20172;-51
2023/02/26 11:13:21;;;;;;;3.30;0.93;;;3.90;96.90;;;;;;5013503;28;20025;-52
2023/02/26 11:15:50;;;;;;;0.85;0.85;;;3.70;96.40;;;;;;5014712;28;20037;-52
2023/02/26 11:18:22;;;;;;;3.25;0.80;;;3.70;97.00;;;;;;5013271;28;20552;-56
2023/02/26 11:20:48;;;;;;;1.00;1.00;;;3.70;96.80;;;;;;5014871;28;20037;-51
2023/02/26 11:23:18;;;;;;;1.42;1.25;;;3.60;96.60;;;;;;5013412;28;20025;-50
2023/02/26 11:25:45;;;;;;;0.88;0.88;;;3.60;97.30;;;;;;5014649;28;20053;-49
2023/02/26 11:28:49;;;;;;;3.47;1.27;;;3.60;97.10;;;;;;5012956;28;20053;-54
2023/02/26 11:31:18;;;;;;;0.93;0.93;;;3.60;97.30;;;;;;5013887;28;20038;-48
2023/02/26 11:33:49;;;;;;;0.77;0.77;;;3.80;97.60;;;;;;5014552;28;20064;-47
2023/02/26 11:36:18;;;;;;;1.75;1.10;;;4.00;97.20;;;;;;5014151;28;20109;-48
2023/02/26 11:38:53;;;;;;;2.47;1.00;;;4.20;97.60;;;;;;5014308;28;20504;-50
2023/02/26 11:41:21;;;;;;;0.95;0.85;;;4.00;95.80;;;;;;5014459;28;20029;-55
2023/02/26 11:43:55;;;;;;;0.95;0.95;;;3.90;95.60;;;;;;5013974;28;20056;-53
2023/02/26 11:46:24;;;;;;;1.13;1.00;;;3.80;96.30;;;;;;5014306;28;20026;-52
2023/02/26 11:48:52;;;;;;;5.47;1.33;;;4.00;96.80;;;;;;5014151;28;20449;-51
2023/02/26 11:51:21;;;;;;;2.22;1.20;;;4.10;95.90;;;;;;5014037;28;20489;-50
2023/02/26 11:53:51;;;;;;;2.47;0.85;;;4.20;97.30;;;;;;5013942;28;20468;-48
2023/02/26 11:56:25;;;;;;;2.17;1.13;;;4.20;96.60;;;;;;5014120;28;20104;-53
2023/02/26 11:58:54;;;;;;;1.58;0.95;;;4.00;96.20;;;;;;5029913;28;20025;-48
2023/02/26 12:01:21;;;;;;;2.30;0.85;;;3.90;95.80;;;;;;5013967;28;20025;-51
2023/02/26 12:03:49;;;;;;;0.80;0.80;;;3.60;95.70;;;;;;5014134;28;20061;-48
2023/02/26 12:06:18;;;;;;;3.35;0.98;;;3.60;96.20;;;;;;5013193;28;20022;-47
2023/02/26 12:08:45;;;;;;;1.13;0.90;;;3.70;96.20;;;;;;5014068;28;20211;-51
2023/02/26 12:11:29;;;;;;;5.10;0.90;;;3.60;96.50;;;;;;5013855;28;20493;-49
2023/02/26 12:14:16;;;;;;;4.80;1.33;;;3.70;96.20;;;;;;5012462;28;20026;-51
2023/02/26 12:17:08;;;;;;;4.82;0.90;;;3.80;96.40;;;;;;5014903;28;20026;-53
2023/02/26 12:19:51;;;;;;;0.70;0.70;;;4.00;96.90;;;;;;5013700;28;20036;-54
2023/02/26 12:22:41;;;;;;;3.38;0.75;;;4.10;96.40;;;;;;5014031;28;20034;-51
2023/02/26 12:25:16;;;;;;;1.88;0.98;;;4.10;96.80;;;;;;5018817;28;20053;-50
2023/02/26 12:27:57;;;;;;;4.28;1.10;;;3.80;96.80;;;;;;5016379;28;20033;-53
2023/02/26 12:30:44;;;;;;;3.67;1.13;;;3.80;97.10;;;;;;5015390;28;20041;-52
2023/02/26 12:33:45;;;;;;;0.85;0.85;;;3.80;97.20;;;;;;5014800;28;20026;-50
2023/02/26 12:36:46;;;;;;;4.00;1.00;;;3.80;96.80;;;;;;5003300;28;20034;-52
2023/02/26 12:39:43;;;;;;;1.58;1.13;;;3.90;97.10;;;;;;5022122;28;20029;-53
2023/02/26 12:42:21;;;;;;;1.77;0.90;;;4.10;96.60;;;;;;5022629;28;20064;-52
2023/02/26 12:45:22;;;;;;;0.70;0.70;;;3.90;96.70;;;;;;5018941;28;20034;-58
2023/02/26 12:48:04;;;;;;;1.75;0.80;;;3.90;97.00;;;;;;5011723;28;20038;-63
2023/02/26 12:50:32;;;;;;;0.68;0.68;;;3.90;97.50;;;;;;5009808;28;20045;-56
2023/02/26 12:53:30;;;;;;;2.22;0.95;;;4.00;97.30;;;;;;5012346;28;20018;-56
2023/02/26 12:56:21;;;;;;;1.15;0.90;;;4.20;96.40;;;;;;5015108;28;20026;-52
2023/02/26 12:59:15;;;;;;;6.43;1.10;;;4.20;96.70;;;;;;5013699;28;20497;-53
2023/02/26 13:01:58;;;;;;;1.52;0.60;;;4.20;97.20;;;;;;5022172;28;20528;-61
2023/02/26 13:05:03;;;;;;;2.13;1.00;;;4.10;96.70;;;;;;5033281;28;20041;-58
2023/02/26 13:07:56;;;;;;;2.17;1.00;;;3.80;96.50;;;;;;5022535;23;20042;-48
2023/02/26 13:10:26;;;;;;;1.05;0.95;;;3.80;97.20;;;;;;4984139;28;20122;-46
2023/02/26 13:13:11;;;;;;;1.33;1.17;;;3.80;97.30;;;;;;4979624;28;20118;-50
2023/02/26 13:16:13;;;;;;;1.13;0.90;;;3.90;97.40;;;;;;4991860;28;20035;-46
2023/02/26 13:18:51;;;;;;;1.25;0.85;;;4.00;97.70;;;;;;4993062;28;20100;-47